This is the latest recevied weather packets stored in our database for station/object Ad4UU. If no packets are shown the sender has not sent any weather packets the latest 10 day(s).
| Time | Temp. | Humidity | Pressure | Rain* | Wind** | Luminosity | Snow |
|---|---|---|---|---|---|---|---|
| 1778161557 | 27.22° C | 73% | 1017.1 hPa | 0 mm | - | - | - |
| 1778160666 | 26.67° C | 77% | 1016.9 hPa | 0 mm | - | - | - |
| 1778160031 | 26.11° C | 80% | 1016.8 hPa | 0 mm | - | - | - |
| 1778159434 | 25.56° C | 81% | 1016.9 hPa | 0 mm | - | - | - |
| 1778158531 | 25° C | 82% | 1016.9 hPa | 0 mm | - | - | - |
| 1778157334 | 23.89° C | 85% | 1016.7 hPa | 0 mm | - | - | - |
| 1778156435 | 23.33° C | 88% | 1016.7 hPa | 0 mm | - | - | - |
| 1778156149 | 23.33° C | 89% | 1016.6 hPa | 0 mm | - | - | - |
| 1778154392 | 21.11° C | 99% | 1016.5 hPa | 0 mm | - | - | - |
| 1778152550 | 20.56° C | 100% | 1016.2 hPa | 0 mm | - | - | - |
| 1778152232 | 20.56° C | 100% | 1016.2 hPa | 0 mm | - | - | - |
| 1778149231 | 19.44° C | 99% | 1016.1 hPa | 0 mm | - | - | - |
| 1778148330 | 20° C | 99% | 1016 hPa | 0 mm | - | - | - |
| 1778145932 | 19.44° C | 98% | 1015.8 hPa | 0 mm | - | - | - |
| 1778144131 | 19.44° C | 98% | 1015.6 hPa | 0 mm | - | - | - |
| 1778142650 | 20.56° C | 98% | 1015.3 hPa | 0 mm | - | - | - |
| 1778141748 | 20.56° C | 98% | 1015.5 hPa | 0 mm | - | - | - |
| 1778141430 | 20.56° C | 98% | 1015.5 hPa | 0 mm | - | - | - |
| 1778138731 | 20.56° C | 96% | 1015.9 hPa | 0 mm | - | - | - |
| 1778138431 | 20.56° C | 97% | 1015.9 hPa | 0 mm | - | - | - |
| 1778136352 | 20.56° C | 97% | 1015.8 hPa | 0 mm | - | - | - |
| 1778135731 | 20.56° C | 95% | 1016.2 hPa | 0 mm | - | - | - |
| 1778134548 | 20° C | 95% | 1016.5 hPa | 0 mm | - | - | - |
| 1778132430 | 21.11° C | 95% | 1017.2 hPa | 0 mm | - | - | - |
| 1778130950 | 21.67° C | 94% | 1017.3 hPa | 0 mm | - | - | - |
* Rain latest hour (hover to see other rain measurements)
** Current wind speed in m/s (hover to see current wind gust speed)